Time;durP1;ratioP1;P1;durP2;ratioP2;P2;SDS_P1;SDS_P2;PMS_P1;PMS_P2;Temp;Humidity;BMP_temperature;BMP_pressure;BME280_temperature;BME280_humidity;BME280_pressure;Samples;Min_cycle;Max_cycle;Signal;HPM_P1;HPM_P2
2023/07/19 00:00:12;;;;;;;2.50;2.40;;;25.00;71.70;;;;;;5029769;28;20263;-69
2023/07/19 00:02:38;;;;;;;2.05;1.95;;;25.00;72.70;;;;;;5033532;28;20268;-70
2023/07/19 00:05:04;;;;;;;2.10;2.00;;;24.90;74.10;;;;;;5030866;28;20266;-71
2023/07/19 00:07:30;;;;;;;2.25;2.15;;;24.80;72.60;;;;;;5035835;28;20663;-71
2023/07/19 00:09:55;;;;;;;1.80;1.80;;;24.80;72.00;;;;;;5027995;28;20259;-70
2023/07/19 00:12:21;;;;;;;2.13;2.03;;;24.80;71.70;;;;;;5030459;28;20184;-71
2023/07/19 00:14:47;;;;;;;5.30;2.25;;;24.80;72.00;;;;;;5030238;28;20185;-70
2023/07/19 00:17:12;;;;;;;2.03;1.92;;;24.80;72.30;;;;;;5034183;28;20835;-71
2023/07/19 00:19:39;;;;;;;1.73;1.73;;;24.80;72.30;;;;;;5030643;28;20303;-70
2023/07/19 00:22:05;;;;;;;2.45;1.75;;;24.70;72.20;;;;;;5033382;28;20191;-70
2023/07/19 00:24:30;;;;;;;1.73;1.63;;;24.70;72.20;;;;;;5021109;28;20180;-71
2023/07/19 00:26:56;;;;;;;1.75;1.75;;;24.70;72.30;;;;;;5021471;28;20195;-71
2023/07/19 00:29:22;;;;;;;1.95;1.83;;;24.60;72.20;;;;;;5028087;28;20180;-70
2023/07/19 00:31:48;;;;;;;2.47;2.38;;;24.60;72.40;;;;;;5034840;28;20184;-71
2023/07/19 00:34:13;;;;;;;2.05;1.85;;;24.60;72.50;;;;;;5034893;28;20184;-71
2023/07/19 00:36:39;;;;;;;1.95;1.77;;;24.60;72.70;;;;;;5029160;28;20236;-71
2023/07/19 00:39:05;;;;;;;1.67;1.67;;;24.50;72.60;;;;;;5028177;28;20180;-70
2023/07/19 00:41:31;;;;;;;1.83;1.70;;;24.50;72.80;;;;;;5024518;28;20179;-71
2023/07/19 00:43:56;;;;;;;2.72;2.17;;;24.50;73.00;;;;;;5034598;28;20906;-70
2023/07/19 00:46:22;;;;;;;8.07;2.08;;;24.50;73.10;;;;;;5028574;28;20255;-71
2023/07/19 00:48:48;;;;;;;2.22;2.13;;;24.50;73.30;;;;;;5028755;28;20263;-71
2023/07/19 00:51:14;;;;;;;1.75;1.65;;;24.50;73.60;;;;;;5028684;28;20184;-71
2023/07/19 00:53:40;;;;;;;3.70;2.20;;;24.40;73.80;;;;;;5032322;28;20579;-71
2023/07/19 00:56:10;;;;;;;2.00;2.00;;;24.40;73.90;;;;;;5026664;28;20219;-71
2023/07/19 00:58:36;;;;;;;2.30;2.20;;;24.30;74.10;;;;;;5029680;28;20271;-71
2023/07/19 01:01:01;;;;;;;2.58;2.47;;;24.30;74.20;;;;;;5028830;28;20259;-71
2023/07/19 01:03:27;;;;;;;2.03;1.98;;;24.20;74.40;;;;;;5031056;28;20706;-71
2023/07/19 01:05:55;;;;;;;2.53;2.33;;;24.10;75.00;;;;;;5027859;28;20220;-71
2023/07/19 01:08:21;;;;;;;3.03;2.85;;;24.10;75.00;;;;;;5029783;28;20177;-71
2023/07/19 01:10:47;;;;;;;2.30;2.20;;;24.00;74.80;;;;;;5024824;28;20605;-71
2023/07/19 01:13:12;;;;;;;2.50;2.30;;;24.00;75.20;;;;;;5029331;28;20180;-71
2023/07/19 01:15:40;;;;;;;2.55;2.40;;;23.90;75.20;;;;;;5030319;28;20219;-71
2023/07/19 01:18:06;;;;;;;5.00;2.63;;;23.90;75.30;;;;;;5029284;28;20172;-71
2023/07/19 01:20:32;;;;;;;2.75;2.60;;;23.80;75.30;;;;;;5029451;28;20735;-71
2023/07/19 01:22:57;;;;;;;3.97;2.90;;;23.80;75.40;;;;;;5029197;28;20676;-71
2023/07/19 01:25:24;;;;;;;2.92;2.80;;;23.80;75.60;;;;;;5027446;28;20208;-70
2023/07/19 01:27:49;;;;;;;2.33;2.22;;;23.80;75.70;;;;;;5029337;28;20184;-71
2023/07/19 01:30:15;;;;;;;2.85;2.75;;;23.70;75.90;;;;;;5023440;28;20215;-71
2023/07/19 01:32:41;;;;;;;2.45;2.35;;;23.70;76.00;;;;;;5033910;28;20187;-70
2023/07/19 01:35:07;;;;;;;2.28;2.28;;;23.60;75.90;;;;;;5026963;28;20676;-71
2023/07/19 01:37:33;;;;;;;2.28;2.17;;;23.60;76.10;;;;;;5032167;28;20196;-71
2023/07/19 01:40:01;;;;;;;2.83;2.60;;;23.60;76.20;;;;;;5026034;28;20573;-71
2023/07/19 01:42:26;;;;;;;2.85;2.75;;;23.50;76.20;;;;;;5028398;28;20689;-71
2023/07/19 01:44:53;;;;;;;2.70;2.50;;;23.50;76.20;;;;;;5041713;28;20187;-70
2023/07/19 01:47:19;;;;;;;2.70;2.50;;;23.50;76.10;;;;;;5035602;28;20197;-70
2023/07/19 01:49:45;;;;;;;2.25;2.15;;;23.40;76.70;;;;;;5031517;28;20192;-70
2023/07/19 01:52:11;;;;;;;2.63;2.53;;;23.40;77.00;;;;;;5034156;28;20181;-70
2023/07/19 01:54:37;;;;;;;2.50;2.35;;;23.40;77.20;;;;;;5037711;28;20194;-70
2023/07/19 01:57:04;;;;;;;2.88;2.67;;;23.30;77.40;;;;;;5031925;28;20253;-70
2023/07/19 01:59:30;;;;;;;2.60;2.50;;;23.30;77.40;;;;;;5033546;28;20180;-70
2023/07/19 02:01:56;;;;;;;2.65;2.55;;;23.20;77.80;;;;;;5032345;28;20231;-71
2023/07/19 02:04:22;;;;;;;3.17;2.83;;;23.20;77.70;;;;;;5029742;28;20180;-70
2023/07/19 02:06:48;;;;;;;3.17;2.90;;;23.20;78.00;;;;;;5029323;28;20220;-71
2023/07/19 02:09:14;;;;;;;2.92;2.80;;;23.20;77.60;;;;;;5031917;28;20199;-71
2023/07/19 02:11:40;;;;;;;2.80;2.60;;;23.10;78.00;;;;;;5028655;28;20199;-70
2023/07/19 02:14:06;;;;;;;2.78;2.67;;;23.10;77.90;;;;;;5032485;28;20172;-70
2023/07/19 02:16:31;;;;;;;3.40;3.20;;;23.10;78.20;;;;;;5033573;28;20645;-70
2023/07/19 02:18:58;;;;;;;2.63;2.53;;;23.10;78.10;;;;;;5032111;28;20628;-70
2023/07/19 02:21:23;;;;;;;2.58;2.47;;;23.10;78.30;;;;;;5032347;28;20192;-70
2023/07/19 02:23:49;;;;;;;3.47;2.83;;;23.00;78.40;;;;;;5025322;28;20634;-70
2023/07/19 02:26:15;;;;;;;2.35;2.25;;;23.00;78.40;;;;;;5033499;28;20295;-70
2023/07/19 02:28:40;;;;;;;3.08;2.85;;;23.00;78.70;;;;;;5033928;28;20206;-70
2023/07/19 02:31:06;;;;;;;2.95;2.85;;;22.90;78.50;;;;;;5029551;28;20651;-70
2023/07/19 02:33:32;;;;;;;2.88;2.67;;;22.90;78.90;;;;;;5034191;28;20192;-70
2023/07/19 02:35:57;;;;;;;3.03;2.30;;;22.90;79.00;;;;;;5032626;28;20334;-68
2023/07/19 02:38:24;;;;;;;2.78;2.67;;;22.80;79.10;;;;;;5037311;28;20207;-70
2023/07/19 02:40:49;;;;;;;3.10;2.90;;;22.80;79.10;;;;;;5024603;28;20186;-70
2023/07/19 02:43:16;;;;;;;2.95;2.75;;;22.70;79.30;;;;;;5030346;28;20580;-70
2023/07/19 02:45:42;;;;;;;3.35;2.38;;;22.70;79.30;;;;;;5032805;28;20220;-70
2023/07/19 02:48:07;;;;;;;3.50;2.70;;;22.70;79.60;;;;;;5032724;28;20200;-70
2023/07/19 02:50:33;;;;;;;3.08;2.95;;;22.60;79.80;;;;;;5031038;28;20188;-70
2023/07/19 02:52:59;;;;;;;2.75;2.65;;;22.60;79.90;;;;;;5029039;28;20642;-70
2023/07/19 02:55:24;;;;;;;2.67;2.55;;;22.60;80.10;;;;;;5031273;28;20695;-70
2023/07/19 02:57:50;;;;;;;2.72;2.63;;;22.50;80.30;;;;;;5035900;28;20215;-70
2023/07/19 03:00:16;;;;;;;2.75;2.55;;;22.50;80.30;;;;;;5030949;28;20544;-70
2023/07/19 03:02:42;;;;;;;2.97;2.72;;;22.50;80.30;;;;;;5031313;28;20566;-70
2023/07/19 03:05:08;;;;;;;3.05;2.95;;;22.50;80.30;;;;;;5032061;28;20646;-70
2023/07/19 03:07:33;;;;;;;2.67;2.55;;;22.40;80.40;;;;;;5028957;28;20187;-70
2023/07/19 03:10:00;;;;;;;3.08;2.90;;;22.40;80.10;;;;;;5030749;28;20212;-70
2023/07/19 03:12:26;;;;;;;2.90;2.70;;;22.40;80.30;;;;;;5030574;28;20176;-70
2023/07/19 03:14:51;;;;;;;2.80;2.60;;;22.30;80.20;;;;;;5035593;28;20216;-70
2023/07/19 03:17:17;;;;;;;2.97;2.78;;;22.30;80.30;;;;;;5023086;28;20220;-70
2023/07/19 03:19:46;;;;;;;2.80;2.65;;;22.30;80.30;;;;;;5029693;28;20218;-71
2023/07/19 03:22:12;;;;;;;2.90;2.72;;;22.20;80.10;;;;;;5030943;28;20259;-71
2023/07/19 03:24:37;;;;;;;2.95;2.75;;;22.20;80.50;;;;;;5025077;28;20288;-71
2023/07/19 03:27:03;;;;;;;4.28;2.50;;;22.20;80.80;;;;;;5023858;28;20721;-70
2023/07/19 03:29:29;;;;;;;3.20;2.78;;;22.10;80.90;;;;;;5025223;28;20177;-70
2023/07/19 03:31:54;;;;;;;2.83;2.72;;;22.10;80.90;;;;;;5029626;28;20184;-70
2023/07/19 03:34:23;;;;;;;2.38;2.28;;;22.10;80.90;;;;;;5025982;28;20178;-71
2023/07/19 03:36:49;;;;;;;5.57;3.10;;;22.10;80.90;;;;;;5032993;28;20195;-71
2023/07/19 03:39:15;;;;;;;2.53;2.42;;;22.00;81.30;;;;;;5026698;28;20637;-70
2023/07/19 03:41:41;;;;;;;2.55;2.45;;;22.00;81.40;;;;;;5027972;28;20262;-70
2023/07/19 03:44:06;;;;;;;2.38;2.25;;;22.00;81.30;;;;;;5030484;28;20267;-71
2023/07/19 03:46:32;;;;;;;3.83;2.58;;;22.00;81.30;;;;;;5030341;28;20228;-71
2023/07/19 03:48:57;;;;;;;2.38;2.28;;;22.00;81.30;;;;;;5030078;28;20192;-72
2023/07/19 03:51:23;;;;;;;2.30;2.10;;;22.00;81.30;;;;;;5028005;28;20238;-71
2023/07/19 03:53:49;;;;;;;2.88;2.78;;;22.00;81.40;;;;;;5029255;28;20246;-71
2023/07/19 03:56:14;;;;;;;2.15;2.05;;;22.00;81.50;;;;;;5028895;28;20190;-71
2023/07/19 03:58:43;;;;;;;3.80;2.75;;;22.00;81.60;;;;;;5027727;28;20207;-71
2023/07/19 04:01:08;;;;;;;2.50;2.35;;;22.00;81.80;;;;;;5031125;28;20267;-70
2023/07/19 04:03:34;;;;;;;2.40;2.30;;;21.90;81.50;;;;;;5035533;28;20263;-71
2023/07/19 04:06:00;;;;;;;2.38;2.20;;;21.90;81.80;;;;;;5034073;28;20208;-71
2023/07/19 04:08:25;;;;;;;3.03;2.83;;;22.00;81.80;;;;;;5031762;28;20234;-71
2023/07/19 04:10:51;;;;;;;2.45;2.13;;;22.00;81.80;;;;;;5028265;28;20205;-71
2023/07/19 04:13:17;;;;;;;2.38;2.28;;;22.00;81.60;;;;;;5033178;28;20188;-71
2023/07/19 04:15:44;;;;;;;2.58;2.47;;;22.00;81.70;;;;;;5030104;28;20191;-71
2023/07/19 04:18:09;;;;;;;2.40;2.30;;;22.00;81.30;;;;;;5028224;28;20272;-71
2023/07/19 04:20:36;;;;;;;2.28;2.10;;;22.10;81.40;;;;;;5026254;28;20208;-71
2023/07/19 04:23:03;;;;;;;3.25;2.58;;;22.10;81.40;;;;;;5023374;28;20191;-70
2023/07/19 04:25:30;;;;;;;3.13;2.92;;;22.20;81.00;;;;;;5025726;28;20695;-70
2023/07/19 04:27:56;;;;;;;2.40;2.22;;;22.20;81.00;;;;;;5027878;28;20180;-69
2023/07/19 04:30:22;;;;;;;3.28;3.05;;;22.20;81.10;;;;;;5025740;28;20180;-69
2023/07/19 04:32:48;;;;;;;2.53;2.42;;;22.30;81.00;;;;;;5029565;28;20180;-69
2023/07/19 04:35:14;;;;;;;4.93;2.95;;;22.30;80.80;;;;;;5027074;28;20217;-70
2023/07/19 04:37:41;;;;;;;2.58;2.45;;;22.30;80.70;;;;;;5029246;28;20216;-70
2023/07/19 04:40:10;;;;;;;3.17;2.90;;;22.40;80.50;;;;;;5025710;28;20182;-72
2023/07/19 04:42:36;;;;;;;3.47;3.28;;;22.40;80.40;;;;;;5011651;28;20185;-72
2023/07/19 04:45:02;;;;;;;4.47;2.67;;;22.50;80.60;;;;;;5027189;28;20592;-72
2023/07/19 04:47:29;;;;;;;3.42;2.55;;;22.50;80.60;;;;;;5028394;28;20177;-73
2023/07/19 04:49:54;;;;;;;3.60;2.63;;;22.60;80.40;;;;;;5024070;28;20698;-72
2023/07/19 04:52:20;;;;;;;3.53;2.75;;;22.60;80.50;;;;;;5025831;28;20216;-72
2023/07/19 04:54:48;;;;;;;3.10;2.83;;;22.70;80.40;;;;;;5027748;28;20208;-72
2023/07/19 04:57:15;;;;;;;2.35;2.25;;;22.70;80.10;;;;;;5030950;28;20274;-72
2023/07/19 04:59:41;;;;;;;2.70;2.33;;;22.70;79.70;;;;;;5027249;28;20196;-73
2023/07/19 05:02:07;;;;;;;2.15;2.10;;;22.70;79.70;;;;;;5025162;28;20177;-71
2023/07/19 05:04:33;;;;;;;2.05;1.95;;;22.80;79.80;;;;;;5025153;28;20191;-71
2023/07/19 05:06:59;;;;;;;2.53;2.42;;;22.80;79.60;;;;;;5021502;28;20272;-71
2023/07/19 05:09:25;;;;;;;2.33;2.30;;;22.90;79.40;;;;;;5028239;28;20234;-72
2023/07/19 05:11:51;;;;;;;2.83;2.63;;;22.90;79.20;;;;;;5029205;28;20677;-73
2023/07/19 05:14:17;;;;;;;2.65;2.55;;;23.00;79.40;;;;;;5027216;28;21385;-72
2023/07/19 05:16:43;;;;;;;2.65;2.53;;;23.00;79.20;;;;;;5029660;28;20191;-72
2023/07/19 05:19:09;;;;;;;4.20;2.58;;;23.00;79.40;;;;;;5031479;28;20184;-72
2023/07/19 05:21:35;;;;;;;2.42;2.33;;;23.10;79.60;;;;;;5031484;28;20165;-72
2023/07/19 05:24:00;;;;;;;3.00;2.80;;;23.10;78.90;;;;;;5033448;28;20617;-72
2023/07/19 05:26:26;;;;;;;2.65;2.55;;;23.10;79.20;;;;;;5032805;28;20291;-73
2023/07/19 05:28:52;;;;;;;2.67;2.47;;;23.20;79.10;;;;;;5032950;28;20227;-74
2023/07/19 05:31:18;;;;;;;2.78;2.67;;;23.20;78.50;;;;;;5032610;28;20187;-73
2023/07/19 05:33:43;;;;;;;2.63;2.53;;;23.20;78.40;;;;;;5031753;28;20184;-72
2023/07/19 05:36:09;;;;;;;2.90;2.70;;;23.30;78.50;;;;;;5060212;28;20234;-73
2023/07/19 05:38:35;;;;;;;2.97;2.78;;;23.30;78.30;;;;;;5032501;28;20579;-74
2023/07/19 05:41:04;;;;;;;2.50;2.40;;;23.40;78.20;;;;;;5029642;28;20235;-78
2023/07/19 05:43:32;;;;;;;2.97;2.67;;;23.40;77.50;;;;;;5030875;28;20184;-74
2023/07/19 05:46:04;;;;;;;2.92;2.72;;;23.50;77.40;;;;;;5027726;28;20254;-74
2023/07/19 05:48:30;;;;;;;2.53;2.30;;;23.50;77.10;;;;;;5029904;28;20246;-74
2023/07/19 05:50:55;;;;;;;2.58;2.47;;;23.60;77.90;;;;;;5062228;28;20628;-74
2023/07/19 05:53:21;;;;;;;2.55;2.35;;;23.70;78.30;;;;;;5032317;28;20187;-74
2023/07/19 05:55:47;;;;;;;2.85;2.65;;;23.70;78.00;;;;;;5031075;28;20219;-74
2023/07/19 05:58:12;;;;;;;3.20;3.00;;;23.80;76.60;;;;;;5029464;28;20192;-74
2023/07/19 06:00:40;;;;;;;9.38;3.40;;;23.80;76.30;;;;;;5032754;28;20176;-73
2023/07/19 06:03:06;;;;;;;4.05;2.75;;;23.80;76.60;;;;;;5029041;28;20207;-74
2023/07/19 06:05:32;;;;;;;15.35;3.70;;;23.90;77.10;;;;;;5030340;28;20647;-74
2023/07/19 06:07:58;;;;;;;4.60;2.75;;;23.90;78.00;;;;;;5028549;28;20215;-74
2023/07/19 06:10:24;;;;;;;3.08;2.78;;;23.90;78.10;;;;;;5037213;28;20192;-74
2023/07/19 06:12:50;;;;;;;2.55;2.35;;;24.00;77.10;;;;;;5031065;28;20600;-74
2023/07/19 06:15:15;;;;;;;3.45;3.25;;;24.00;77.50;;;;;;5031006;28;20173;-74
2023/07/19 06:17:41;;;;;;;3.08;2.65;;;24.10;76.30;;;;;;5029750;28;20180;-74
2023/07/19 06:20:10;;;;;;;7.35;3.35;;;24.20;76.10;;;;;;5026112;28;20259;-74
2023/07/19 06:22:37;;;;;;;3.58;3.30;;;24.20;76.10;;;;;;5026138;28;20183;-74
2023/07/19 06:25:03;;;;;;;2.97;2.83;;;24.30;76.10;;;;;;5026623;28;20189;-75
2023/07/19 06:27:29;;;;;;;2.92;2.83;;;24.40;76.10;;;;;;5028085;28;20551;-74
2023/07/19 06:29:55;;;;;;;2.88;2.78;;;24.50;76.10;;;;;;5029852;28;20184;-72
2023/07/19 06:32:20;;;;;;;2.45;2.30;;;24.50;75.90;;;;;;5037679;28;20184;-74
2023/07/19 06:34:46;;;;;;;6.30;2.92;;;24.60;76.10;;;;;;5034977;28;20177;-73
2023/07/19 06:37:12;;;;;;;21.55;3.75;;;24.70;76.60;;;;;;5040319;28;20707;-73
2023/07/19 06:39:38;;;;;;;2.97;2.88;;;24.70;75.80;;;;;;5030319;28;20180;-73
2023/07/19 06:42:04;;;;;;;3.13;3.03;;;24.80;75.00;;;;;;5036634;28;20183;-73
2023/07/19 06:44:30;;;;;;;3.30;3.10;;;24.80;74.90;;;;;;5030601;28;20173;-73
2023/07/19 06:46:57;;;;;;;5.13;3.05;;;24.80;75.00;;;;;;5040019;28;20237;-73
2023/07/19 06:49:23;;;;;;;5.40;3.45;;;24.90;75.20;;;;;;5034043;28;20176;-73
2023/07/19 06:51:49;;;;;;;7.70;3.33;;;25.00;75.00;;;;;;5031205;28;20242;-73
2023/07/19 06:54:14;;;;;;;6.40;3.53;;;25.10;74.90;;;;;;5031304;28;20185;-73
2023/07/19 06:56:40;;;;;;;3.65;3.33;;;25.20;74.90;;;;;;5033603;28;20189;-73
2023/07/19 06:59:05;;;;;;;3.17;2.70;;;25.20;74.60;;;;;;5031447;28;20857;-73
2023/07/19 07:01:31;;;;;;;2.88;2.70;;;25.20;74.00;;;;;;5031229;28;20608;-73
2023/07/19 07:03:57;;;;;;;4.72;3.15;;;25.30;74.20;;;;;;5019577;28;20259;-73
2023/07/19 07:06:23;;;;;;;3.53;3.33;;;25.40;74.20;;;;;;5030231;28;20762;-73
2023/07/19 07:08:48;;;;;;;3.20;2.95;;;25.50;73.60;;;;;;5029470;28;20180;-73
2023/07/19 07:11:14;;;;;;;3.70;3.40;;;25.50;74.20;;;;;;5028310;28;20665;-72
2023/07/19 07:13:39;;;;;;;3.38;3.08;;;25.60;73.20;;;;;;5030947;28;20181;-73
2023/07/19 07:16:05;;;;;;;2.95;2.85;;;25.70;72.60;;;;;;5030797;28;20176;-72
2023/07/19 07:18:31;;;;;;;5.15;3.00;;;25.80;72.50;;;;;;5062752;28;20259;-73
2023/07/19 07:20:56;;;;;;;2.70;2.60;;;25.90;72.30;;;;;;5030846;28;20720;-73
2023/07/19 07:23:22;;;;;;;3.22;2.92;;;25.90;71.40;;;;;;5030598;28;20172;-73
2023/07/19 07:25:56;;;;;;;4.50;2.80;;;26.00;71.70;;;;;;5029352;28;20212;-73
2023/07/19 07:28:22;;;;;;;2.97;2.80;;;26.10;70.20;;;;;;5021542;28;20186;-74
2023/07/19 07:30:48;;;;;;;5.93;3.20;;;26.10;71.90;;;;;;5029130;28;20172;-73
2023/07/19 07:33:14;;;;;;;3.65;3.28;;;26.20;71.70;;;;;;5030951;28;20168;-73
2023/07/19 07:35:39;;;;;;;3.17;3.03;;;26.20;72.10;;;;;;5030517;28;20176;-73
2023/07/19 07:38:05;;;;;;;4.18;2.83;;;26.30;72.60;;;;;;5028436;28;20179;-73
2023/07/19 07:40:31;;;;;;;4.05;3.10;;;26.30;71.70;;;;;;5030292;28;20176;-73
2023/07/19 07:42:56;;;;;;;4.53;3.25;;;26.40;72.10;;;;;;5024591;28;20272;-73
2023/07/19 07:45:22;;;;;;;3.10;2.90;;;26.50;71.70;;;;;;5055755;28;20180;-73
2023/07/19 07:47:48;;;;;;;10.18;3.03;;;26.60;71.60;;;;;;5020665;28;20203;-73
2023/07/19 07:50:13;;;;;;;13.82;4.55;;;26.70;71.90;;;;;;5027999;28;20172;-73
2023/07/19 07:52:39;;;;;;;16.20;4.18;;;26.80;71.70;;;;;;5021554;28;20629;-73
2023/07/19 07:55:06;;;;;;;14.93;4.03;;;26.80;71.80;;;;;;5027743;28;20177;-73
2023/07/19 07:57:37;;;;;;;3.10;2.90;;;26.90;71.60;;;;;;5030615;28;20192;-73
2023/07/19 08:00:06;;;;;;;4.38;3.38;;;27.00;71.30;;;;;;5017670;28;20172;-73
2023/07/19 08:02:32;;;;;;;17.70;3.38;;;27.10;70.90;;;;;;5027530;28;20703;-75
2023/07/19 08:04:58;;;;;;;6.00;3.10;;;27.10;70.60;;;;;;5029464;28;20184;-72
2023/07/19 08:07:25;;;;;;;8.65;3.15;;;27.20;70.20;;;;;;5027128;28;20223;-73
2023/07/19 08:09:52;;;;;;;5.78;3.15;;;27.30;69.90;;;;;;5022547;28;20173;-72
2023/07/19 08:12:18;;;;;;;3.67;2.85;;;27.40;69.40;;;;;;5029613;28;20211;-73
2023/07/19 08:14:44;;;;;;;3.13;2.88;;;27.40;69.10;;;;;;5029672;28;20214;-72
2023/07/19 08:17:10;;;;;;;2.92;2.72;;;27.50;69.50;;;;;;5030033;28;20211;-74
2023/07/19 08:19:35;;;;;;;3.42;3.22;;;27.60;69.20;;;;;;5029453;28;20188;-72
2023/07/19 08:22:05;;;;;;;9.70;3.70;;;27.70;69.00;;;;;;5029799;28;20261;-72
2023/07/19 08:24:31;;;;;;;3.25;3.05;;;27.60;67.20;;;;;;5029741;28;20203;-72
2023/07/19 08:26:57;;;;;;;4.68;2.92;;;27.70;67.50;;;;;;5020390;28;20651;-72
2023/07/19 08:29:26;;;;;;;5.53;3.55;;;27.80;68.30;;;;;;5024336;28;20184;-72
2023/07/19 08:31:51;;;;;;;2.67;2.65;;;27.80;67.60;;;;;;5029909;28;20176;-73
2023/07/19 08:34:17;;;;;;;4.22;2.97;;;27.90;67.40;;;;;;5029585;28;20184;-72
2023/07/19 08:36:43;;;;;;;3.70;3.25;;;28.00;68.00;;;;;;5026328;28;20271;-73
2023/07/19 08:39:09;;;;;;;19.95;4.03;;;28.10;67.70;;;;;;5029329;28;20263;-72
2023/07/19 08:41:35;;;;;;;2.90;2.70;;;28.20;68.20;;;;;;5029288;28;20734;-72
2023/07/19 08:44:01;;;;;;;3.28;2.97;;;28.30;67.70;;;;;;5027612;28;21026;-72
2023/07/19 08:46:27;;;;;;;4.15;2.85;;;28.40;67.40;;;;;;5025642;28;20211;-72
2023/07/19 08:48:52;;;;;;;21.15;3.97;;;28.50;67.50;;;;;;5027150;28;20263;-72
2023/07/19 08:51:18;;;;;;;13.90;4.35;;;28.60;67.10;;;;;;5029445;28;20691;-72
2023/07/19 08:53:45;;;;;;;26.15;4.35;;;28.70;66.80;;;;;;5033175;28;20208;-73
2023/07/19 08:56:17;;;;;;;5.50;3.33;;;28.80;66.70;;;;;;5033332;28;20289;-73
2023/07/19 08:58:43;;;;;;;9.35;2.97;;;29.00;66.40;;;;;;5033378;28;20215;-72
2023/07/19 09:01:09;;;;;;;3.05;2.85;;;29.10;66.40;;;;;;5032433;28;20180;-72
2023/07/19 09:03:35;;;;;;;3.15;2.92;;;29.20;66.40;;;;;;5040789;28;20180;-73
2023/07/19 09:06:01;;;;;;;3.83;3.47;;;29.30;65.90;;;;;;5032713;28;20247;-72
2023/07/19 09:08:37;;;;;;;4.60;3.58;;;29.40;65.30;;;;;;5033288;28;20183;-72
2023/07/19 09:11:04;;;;;;;3.30;3.10;;;29.50;64.80;;;;;;5033198;28;20191;-72
2023/07/19 09:13:33;;;;;;;3.35;3.22;;;29.60;64.30;;;;;;5033548;28;20175;-72
2023/07/19 09:16:02;;;;;;;3.38;3.08;;;29.60;64.60;;;;;;5033031;28;20321;-73
2023/07/19 09:18:30;;;;;;;3.75;3.50;;;29.70;64.70;;;;;;5029767;28;20602;-71
2023/07/19 09:20:58;;;;;;;9.57;3.50;;;29.80;64.40;;;;;;5030193;28;20185;-72
2023/07/19 09:23:24;;;;;;;5.22;4.03;;;29.80;63.50;;;;;;5032914;28;20254;-72
2023/07/19 09:25:54;;;;;;;4.13;3.83;;;29.80;62.80;;;;;;5032989;28;20212;-74
2023/07/19 09:28:22;;;;;;;3.22;3.03;;;29.90;63.60;;;;;;5032965;28;20620;-73
2023/07/19 09:30:55;;;;;;;3.63;3.42;;;30.00;63.80;;;;;;5032473;28;20234;-73
2023/07/19 09:33:21;;;;;;;3.20;3.05;;;30.10;63.50;;;;;;5032827;28;20238;-74
2023/07/19 09:35:52;;;;;;;3.60;3.50;;;30.30;63.30;;;;;;5032609;28;20189;-74
2023/07/19 09:38:18;;;;;;;3.42;3.13;;;30.40;63.90;;;;;;5027816;28;20675;-72
2023/07/19 09:40:44;;;;;;;4.13;3.65;;;30.60;64.20;;;;;;5032184;28;20856;-72
2023/07/19 09:43:12;;;;;;;11.18;4.00;;;30.70;62.50;;;;;;5032492;28;20251;-72
2023/07/19 09:45:40;;;;;;;3.67;3.47;;;30.90;62.90;;;;;;5031841;28;20222;-73
2023/07/19 09:48:07;;;;;;;4.22;3.95;;;31.00;62.90;;;;;;5027260;28;20184;-73
2023/07/19 09:50:33;;;;;;;3.97;3.78;;;31.20;63.30;;;;;;5039354;28;20176;-72
2023/07/19 09:53:01;;;;;;;5.65;4.18;;;31.40;63.10;;;;;;5032361;28;20187;-74
2023/07/19 09:55:28;;;;;;;4.28;3.70;;;31.50;63.10;;;;;;5032139;28;20620;-74
2023/07/19 09:57:56;;;;;;;4.20;3.90;;;31.70;61.70;;;;;;5034132;28;20203;-73
2023/07/19 10:00:22;;;;;;;3.67;3.38;;;31.90;61.40;;;;;;5027782;28;20657;-72
2023/07/19 10:02:48;;;;;;;4.30;3.97;;;31.90;61.50;;;;;;5026927;28;20555;-72
2023/07/19 10:05:14;;;;;;;3.83;3.58;;;32.10;62.00;;;;;;5030830;28;20183;-73
2023/07/19 10:07:40;;;;;;;4.95;3.88;;;32.30;62.00;;;;;;5032343;28;20176;-74
2023/07/19 10:10:06;;;;;;;4.25;3.97;;;32.50;60.90;;;;;;5031138;28;20172;-74
2023/07/19 10:12:36;;;;;;;3.53;3.25;;;32.80;59.10;;;;;;5029114;28;20195;-74
2023/07/19 10:15:06;;;;;;;6.70;4.00;;;33.10;59.30;;;;;;5030587;28;20194;-74
2023/07/19 10:17:51;;;;;;;4.47;3.67;;;33.30;59.70;;;;;;5031836;28;20186;-74
2023/07/19 10:20:17;;;;;;;5.25;3.78;;;33.50;58.60;;;;;;5031966;28;20188;-74
2023/07/19 10:23:00;;;;;;;3.83;3.53;;;33.80;57.40;;;;;;5030610;28;20198;-72
2023/07/19 10:25:27;;;;;;;3.88;3.55;;;34.00;55.70;;;;;;5058434;28;20175;-73
2023/07/19 10:28:07;;;;;;;4.03;3.85;;;34.20;56.20;;;;;;5029719;28;20274;-73
2023/07/19 10:30:49;;;;;;;4.47;3.88;;;34.80;52.30;;;;;;5028255;28;20705;-73
2023/07/19 10:33:17;;;;;;;4.35;3.70;;;35.30;51.90;;;;;;5031651;28;20172;-73
2023/07/19 10:35:43;;;;;;;4.40;3.97;;;35.70;53.10;;;;;;5031470;28;20187;-73
2023/07/19 10:38:17;;;;;;;3.47;3.30;;;36.10;51.10;;;;;;5021953;28;20184;-72
2023/07/19 10:40:55;;;;;;;4.00;3.42;;;36.80;50.50;;;;;;5021043;28;20246;-72
2023/07/19 10:43:21;;;;;;;4.28;3.80;;;37.20;50.20;;;;;;5032277;28;20191;-73
2023/07/19 10:45:46;;;;;;;5.20;4.70;;;37.90;48.70;;;;;;5027534;28;20215;-74
2023/07/19 10:48:12;;;;;;;6.95;3.92;;;38.60;49.50;;;;;;5029900;28;20585;-74
2023/07/19 10:50:38;;;;;;;5.57;3.80;;;38.80;46.90;;;;;;5027159;28;20176;-75
2023/07/19 10:53:06;;;;;;;3.55;3.45;;;39.40;46.20;;;;;;5031176;28;20191;-73
2023/07/19 10:55:31;;;;;;;4.30;4.03;;;39.80;45.60;;;;;;5026049;28;20207;-71
2023/07/19 10:57:57;;;;;;;5.25;3.88;;;40.00;47.00;;;;;;5022262;28;20727;-71
2023/07/19 11:00:23;;;;;;;4.07;3.78;;;40.10;46.10;;;;;;5023717;28;20623;-71
2023/07/19 11:02:49;;;;;;;4.00;3.80;;;40.30;46.20;;;;;;5031413;28;20554;-71
2023/07/19 11:05:15;;;;;;;3.92;3.72;;;40.40;46.30;;;;;;5030825;28;20246;-71
2023/07/19 11:07:41;;;;;;;3.90;3.80;;;40.70;46.00;;;;;;5029351;28;20188;-71
2023/07/19 11:10:08;;;;;;;3.63;3.40;;;40.90;47.60;;;;;;5028506;28;20271;-71
2023/07/19 11:12:33;;;;;;;3.75;3.13;;;40.90;47.60;;;;;;5028130;28;20187;-71
2023/07/19 11:15:01;;;;;;;2.72;2.72;;;40.90;43.40;;;;;;5016747;28;20180;-71
2023/07/19 11:17:28;;;;;;;3.58;3.45;;;40.90;43.20;;;;;;5020178;28;20188;-71
2023/07/19 11:19:54;;;;;;;3.38;3.28;;;41.10;45.30;;;;;;5026662;28;20258;-70
2023/07/19 11:22:25;;;;;;;4.00;3.80;;;40.90;47.00;;;;;;5028013;28;20183;-70
2023/07/19 11:24:52;;;;;;;3.47;3.22;;;40.70;43.90;;;;;;5026988;28;20184;-71
2023/07/19 11:27:19;;;;;;;2.95;2.95;;;40.60;44.60;;;;;;5030046;28;20203;-70
2023/07/19 11:29:54;;;;;;;3.20;3.10;;;40.70;44.00;;;;;;5027659;28;20188;-70
2023/07/19 11:32:21;;;;;;;2.65;2.55;;;40.80;43.30;;;;;;5026920;28;20199;-71
2023/07/19 11:34:48;;;;;;;4.03;3.15;;;41.00;45.30;;;;;;5028186;28;20187;-71
2023/07/19 11:37:23;;;;;;;3.60;3.25;;;41.30;43.90;;;;;;5026196;28;20666;-70
2023/07/19 11:39:50;;;;;;;3.67;2.42;;;41.50;42.80;;;;;;5028449;28;20187;-71
2023/07/19 11:42:42;;;;;;;2.58;2.47;;;41.80;45.00;;;;;;5026150;28;20172;-71
2023/07/19 11:45:19;;;;;;;3.10;2.97;;;41.80;42.60;;;;;;5026279;28;20180;-70
2023/07/19 11:47:48;;;;;;;2.15;2.05;;;41.70;43.30;;;;;;5015583;28;20695;-72
2023/07/19 11:50:14;;;;;;;13.38;2.97;;;41.70;44.10;;;;;;5027986;28;20176;-72
2023/07/19 11:52:51;;;;;;;2.85;2.75;;;41.70;44.70;;;;;;5025515;28;20191;-73
2023/07/19 11:55:18;;;;;;;2.72;2.63;;;41.90;43.80;;;;;;5026890;28;20654;-73
2023/07/19 11:57:45;;;;;;;2.58;2.58;;;41.80;45.90;;;;;;5035204;28;20591;-74
2023/07/19 12:00:14;;;;;;;2.35;2.25;;;41.70;44.50;;;;;;5029171;28;20238;-74
2023/07/19 12:02:41;;;;;;;4.78;2.42;;;41.40;43.50;;;;;;5029526;28;20199;-74
2023/07/19 12:05:07;;;;;;;3.05;2.85;;;41.30;43.90;;;;;;5034673;28;20179;-73
2023/07/19 12:07:33;;;;;;;2.67;2.67;;;41.50;43.10;;;;;;5026383;28;20222;-70
2023/07/19 12:10:03;;;;;;;2.90;2.70;;;41.60;44.30;;;;;;5027893;28;20204;-72
2023/07/19 12:12:29;;;;;;;2.95;2.63;;;41.50;43.60;;;;;;5019998;28;20254;-72
2023/07/19 12:14:55;;;;;;;2.72;2.67;;;41.30;43.40;;;;;;5019103;28;20719;-72
2023/07/19 12:17:20;;;;;;;2.67;2.58;;;41.10;44.00;;;;;;5021492;28;20216;-70
2023/07/19 12:19:46;;;;;;;3.30;3.13;;;41.30;45.80;;;;;;5026480;28;20180;-72
2023/07/19 12:22:12;;;;;;;2.92;2.72;;;41.70;45.30;;;;;;5027925;28;20188;-70
2023/07/19 12:24:37;;;;;;;3.20;3.10;;;42.20;45.20;;;;;;5018575;28;20567;-73
2023/07/19 12:27:03;;;;;;;2.85;2.75;;;42.70;42.30;;;;;;5026507;28;20215;-74
2023/07/19 12:29:29;;;;;;;2.53;2.42;;;43.20;45.20;;;;;;5026031;28;20274;-70
2023/07/19 12:31:55;;;;;;;2.53;2.47;;;43.70;42.50;;;;;;5030502;28;20237;-73
2023/07/19 12:34:20;;;;;;;2.72;2.53;;;44.20;42.90;;;;;;5029514;28;20194;-72
2023/07/19 12:36:50;;;;;;;3.20;3.00;;;44.70;42.00;;;;;;5024597;28;20306;-72
2023/07/19 12:39:18;;;;;;;2.55;2.38;;;45.20;43.00;;;;;;5058967;28;20176;-72
2023/07/19 12:41:44;;;;;;;2.97;2.88;;;45.50;39.80;;;;;;5027535;28;20270;-74